| time (UTC) | temp F | wind direction | speed knots | gust knots | rain 1hr in | rain 24hr in | rain mn in | humidity % | barometer mb |
| 20260906163503 | 73 | 90 | 4.3 | 6.1 | 0.00 | 0.00 | 0.00 | 77 | 1023.3 |
| 20260906163002 | 73 | 73 | 3.5 | 5.2 | 0.00 | 0.00 | 0.00 | 76 | 1023.3 |
| 20260906162500 | 73 | 83 | 2.6 | 3.5 | 0.00 | 0.00 | 0.00 | 79 | 1023.3 |
| 20260906161955 | 73 | 120 | 1.7 | 3.5 | 0.00 | 0.00 | 0.00 | 78 | 1023.3 |
| 20260906161449 | 73 | 55 | 1.7 | 1.7 | 0.00 | 0.00 | 0.00 | 77 | 1023.3 |
| 20260906160949 | 74 | 89 | 3.5 | 6.1 | 0.00 | 0.00 | 0.00 | 75 | 1023.3 |
| 20260906160443 | 73 | 87 | 3.5 | 6.1 | 0.00 | 0.00 | 0.00 | 77 | 1023.2 |
| 20260906155941 | 72 | 75 | 3.5 | 6.1 | 0.00 | 0.00 | 0.00 | 78 | 1023.3 |
| 20260906155439 | 73 | 50 | 2.6 | 5.2 | 0.00 | 0.00 | 0.00 | 77 | 1023.1 |
| 20260906154936 | 74 | 82 | 2.6 | 5.2 | 0.00 | 0.00 | 0.00 | 76 | 1023.4 |
| 20260906154431 | 74 | 65 | 2.6 | 3.5 | 0.00 | 0.00 | 0.00 | 76 | 1023.4 |
| 20260906153929 | 74 | 88 | 1.7 | 7.0 | 0.00 | 0.00 | 0.00 | 77 | 1023.3 |
| 20260906153428 | 74 | 78 | 2.6 | 5.2 | 0.00 | 0.00 | 0.00 | 75 | 1023.4 |
| 20260906152923 | 73 | 83 | 1.7 | 3.5 | 0.00 | 0.00 | 0.00 | 75 | 1023.4 |
| 20260906152418 | 75 | 86 | 1.7 | 3.5 | 0.00 | 0.00 | 0.00 | 73 | 1023.3 |
| 20260906151917 | 74 | 109 | 1.7 | 1.7 | 0.00 | 0.00 | 0.00 | 73 | 1023.3 |
| 20260906151413 | 75 | 61 | 2.6 | 3.5 | 0.00 | 0.00 | 0.00 | 73 | 1023.1 |
| 20260906150909 | 75 | 112 | 1.7 | 2.6 | 0.00 | 0.00 | 0.00 | 71 | 1023.2 |
| 20260906150404 | 75 | 69 | 0.9 | 1.7 | 0.00 | 0.00 | 0.00 | 73 | 1023.1 |
| 20260906145903 | 75 | 188 | 2.6 | 3.5 | 0.00 | 0.00 | 0.00 | 71 | 1023.1 |
| 20260906145357 | 74 | 101 | 1.7 | 1.7 | 0.00 | 0.00 | 0.00 | 73 | 1023.2 |
| 20260906144857 | 75 | 91 | 0.9 | 0.9 | 0.00 | 0.00 | 0.00 | 74 | 1023.3 |
| 20260906144346 | 74 | 145 | 1.7 | 1.7 | 0.00 | 0.00 | 0.00 | 73 | 1023.2 |
| 20260906143841 | 75 | 106 | 2.6 | 3.5 | 0.00 | 0.00 | 0.00 | 72 | 1023.3 |
| 20260906143337 | 75 | 76 | 1.7 | 3.5 | 0.00 | 0.00 | 0.00 | 71 | 1023.1 |
| 20260906142832 | 75 | 65 | 1.7 | 1.7 | 0.00 | 0.00 | 0.00 | 71 | 1023.3 |
| 20260906142327 | 74 | 140 | 1.7 | 2.6 | 0.00 | 0.00 | 0.00 | 71 | 1023.2 |
| 20260906141821 | 75 | 101 | 0.0 | 0.9 | 0.00 | 0.00 | 0.00 | 72 | 1023.1 |
| 20260906141316 | 75 | 85 | 0.0 | 0.0 | 0.00 | 0.00 | 0.00 | 73 | 1023.0 |
| 20260906140814 | 75 | 116 | 0.9 | 1.7 | 0.00 | 0.00 | 0.00 | 72 | 1023.0 |
| 20260906140310 | 74 | 84 | 0.9 | 1.7 | 0.00 | 0.00 | 0.00 | 74 | 1022.9 |
| 20260906135807 | 75 | 132 | 1.7 | 1.7 | 0.00 | 0.00 | 0.00 | 72 | 1023.0 |
| 20260906135305 | 74 | 93 | 2.6 | 2.6 | 0.00 | 0.00 | 0.00 | 73 | 1022.9 |
| 20260906134758 | 74 | 78 | 1.7 | 2.6 | 0.00 | 0.00 | 0.00 | 73 | 1022.6 |
| 20260906134253 | 74 | 135 | 0.9 | 2.6 | 0.00 | 0.00 | 0.00 | 73 | 1022.8 |
| 20260906133748 | 73 | 89 | 0.9 | 0.9 | 0.00 | 0.00 | 0.00 | 76 | 1022.7 |
| 20260906133244 | 72 | 92 | 0.9 | 0.9 | 0.00 | 0.00 | 0.00 | 77 | 1022.8 |
| 20260906132739 | 71 | 120 | 0.9 | 1.7 | 0.00 | 0.00 | 0.00 | 78 | 1022.7 |
| 20260906132234 | 71 | 104 | 1.7 | 2.6 | 0.00 | 0.00 | 0.00 | 79 | 1022.9 |
| 20260906131729 | 70 | 98 | 0.0 | 0.9 | 0.00 | 0.00 | 0.00 | 80 | 1023.1 |
| 20260906131224 | 71 | 171 | 0.9 | 1.7 | 0.00 | 0.00 | 0.00 | 81 | 1023.0 |
| 20260906130720 | 71 | 126 | 0.0 | 0.0 | 0.00 | 0.00 | 0.00 | 82 | 1023.0 |
| 20260906130214 | 72 | 129 | 0.0 | 0.9 | 0.00 | 0.00 | 0.00 | 79 | 1022.8 |
| 20260906125713 | 73 | 130 | 0.9 | 1.7 | 0.00 | 0.00 | 0.00 | 77 | 1022.7 |
| 20260906125211 | 73 | 158 | 0.0 | 0.0 | 0.00 | 0.00 | 0.00 | 78 | 1022.5 |
| 20260906124707 | 72 | 106 | 0.9 | 1.7 | 0.00 | 0.00 | 0.00 | 79 | 1022.7 |
| 20260906124202 | 72 | 108 | 1.7 | 1.7 | 0.00 | 0.00 | 0.00 | 78 | 1022.4 |
| 20260906123701 | 72 | 120 | 0.9 | 0.9 | 0.00 | 0.00 | 0.00 | 79 | 1022.5 |
| 20260906123156 | 71 | 89 | 0.9 | 0.9 | 0.00 | 0.00 | 0.00 | 81 | 1022.3 |
| 20260906122655 | 70 | 95 | 0.9 | 1.7 | 0.00 | 0.00 | 0.00 | 82 | 1022.3 |
| 20260906122151 | 70 | 103 | 0.9 | 1.7 | 0.00 | 0.00 | 0.00 | 83 | 1022.3 |
| 20260906121647 | 69 | 130 | 1.7 | 1.7 | 0.00 | 0.00 | 0.00 | 84 | 1022.2 |
| 20260906121143 | 68 | 129 | 0.0 | 0.9 | 0.00 | 0.00 | 0.00 | 87 | 1022.3 |
| 20260906120639 | 68 | 130 | 0.0 | 0.9 | 0.00 | 0.00 | 0.00 | 87 | 1022.3 |
| 20260906120136 | 68 | 118 | 0.0 | 0.0 | 0.00 | 0.00 | 0.00 | 87 | 1022.2 |
| 20260906115637 | 68 | 116 | 0.0 | 0.0 | 0.00 | 0.00 | 0.00 | 86 | 1022.1 |
| 20260906115132 | 68 | 136 | 0.0 | 0.0 | 0.00 | 0.00 | 0.00 | 86 | 1021.9 |
| 20260906114631 | 68 | 158 | 0.0 | 0.0 | 0.00 | 0.00 | 0.00 | 88 | 1021.8 |
| 20260906114126 | 68 | 158 | 0.0 | 0.0 | 0.00 | 0.00 | 0.00 | 88 | 1021.7 |
| 20260906113626 | 68 | 158 | 0.0 | 0.0 | 0.00 | 0.00 | 0.00 | 88 | 1021.7 |
| 20260906113121 | 68 | 158 | 0.0 | 0.0 | 0.00 | 0.00 | 0.00 | 88 | 1021.7 |
| 20260906112620 | 68 | 158 | 0.0 | 0.0 | 0.00 | 0.00 | 0.00 | 88 | 1021.7 |
| 20260906112118 | 68 | 158 | 0.0 | 0.0 | 0.00 | 0.00 | 0.00 | 88 | 1021.6 |
| 20260906111616 | 0 | 0.0 | 0.0 | 0.00 | 0.00 | 0.00 | 1021.5 | ||
| 20260906111112 | 0 | 0.0 | 0.0 | 0.00 | 0.00 | 0.00 | 1021.3 | ||
| 20260906110611 | 0 | 0.0 | 0.0 | 0.00 | 0.00 | 0.00 | 1021.4 | ||
| 20260906110106 | 0 | 0.0 | 0.0 | 0.00 | 0.00 | 0.00 | 1021.3 | ||
| 20260906105601 | 0 | 0.0 | 0.0 | 0.00 | 0.00 | 0.00 | 1021.2 | ||
| 20260906105057 | 0 | 0.0 | 0.0 | 0.00 | 0.00 | 0.00 | 1021.3 | ||
| 20260906104555 | 0 | 0.0 | 0.0 | 0.00 | 0.00 | 0.00 | 1021.4 | ||
| 20260906104049 | 0 | 0.0 | 0.0 | 0.00 | 0.00 | 0.00 | 1021.4 | ||
| 20260906103548 | 64 | 120 | 0.0 | 0.0 | 0.00 | 0.00 | 0.00 | 99 | 1021.1 |
| 20260906103043 | 64 | 120 | 0.0 | 0.0 | 0.00 | 0.00 | 0.00 | 99 | 1021.3 |
| 20260906102537 | 64 | 120 | 0.0 | 0.0 | 0.00 | 0.00 | 0.00 | 99 | 1021.3 |
| 20260906102032 | 64 | 120 | 0.0 | 0.0 | 0.00 | 0.00 | 0.00 | 99 | 1021.2 |
| 20260906101527 | 64 | 120 | 0.0 | 0.0 | 0.00 | 0.00 | 0.00 | 99 | 1021.3 |
| 20260906101022 | 64 | 120 | 0.0 | 0.0 | 0.00 | 0.00 | 0.00 | 99 | 1021.3 |
| 20260906100518 | 64 | 120 | 0.0 | 0.0 | 0.00 | 0.00 | 0.00 | 99 | 1021.4 |
| 20260906100013 | 64 | 120 | 0.0 | 0.0 | 0.00 | 0.00 | 0.00 | 99 | 1021.2 |
| 20260906095507 | 64 | 120 | 0.0 | 0.0 | 0.00 | 0.00 | 0.00 | 99 | 1021.1 |
| 20260906095003 | 64 | 120 | 0.0 | 0.0 | 0.00 | 0.00 | 0.00 | 99 | 1021.2 |
| 20260906094501 | 64 | 120 | 0.0 | 0.0 | 0.00 | 0.00 | 0.00 | 99 | 1021.2 |
| 20260906093958 | 64 | 120 | 0.0 | 0.0 | 0.00 | 0.00 | 0.00 | 99 | 1021.1 |
| 20260906093454 | 64 | 130 | 0.0 | 0.0 | 0.00 | 0.00 | 0.00 | 99 | 1021.0 |
| 20260906092953 | 64 | 129 | 0.0 | 0.0 | 0.00 | 0.00 | 0.00 | 99 | 1021.1 |
| 20260906092453 | 64 | 113 | 0.0 | 0.0 | 0.00 | 0.00 | 0.00 | 99 | 1021.0 |
| 20260906091948 | 63 | 265 | 0.0 | 0.0 | 0.00 | 0.00 | 0.00 | 99 | 1020.9 |
| 20260906091444 | 63 | 265 | 0.0 | 0.0 | 0.00 | 0.00 | 0.00 | 99 | 1021.0 |
| 20260906090941 | 63 | 265 | 0.0 | 0.0 | 0.00 | 0.00 | 0.00 | 99 | 1021.0 |
| 20260906090436 | 63 | 265 | 0.0 | 0.0 | 0.00 | 0.00 | 0.00 | 99 | 1020.9 |
| 20260906085930 | 63 | 265 | 0.0 | 0.0 | 0.00 | 0.00 | 0.00 | 99 | 1020.9 |
| 20260906085430 | 63 | 265 | 0.0 | 0.0 | 0.00 | 0.00 | 0.00 | 99 | 1020.9 |
| 20260906084929 | 63 | 265 | 0.0 | 0.0 | 0.00 | 0.00 | 0.00 | 99 | 1021.1 |
| 20260906084424 | 63 | 265 | 0.0 | 0.0 | 0.00 | 0.00 | 0.00 | 99 | 1021.0 |
| 20260906083923 | 63 | 265 | 0.0 | 0.0 | 0.00 | 0.00 | 0.00 | 99 | 1020.9 |
| 20260906083419 | 63 | 265 | 0.0 | 0.0 | 0.00 | 0.00 | 0.00 | 99 | 1021.1 |
| 20260906082918 | 64 | 265 | 0.0 | 0.0 | 0.00 | 0.00 | 0.00 | 99 | 1021.1 |
| 20260906082414 | 64 | 265 | 0.0 | 0.9 | 0.00 | 0.00 | 0.00 | 99 | 1021.1 |
| 20260906081909 | 64 | 265 | 0.0 | 0.9 | 0.00 | 0.00 | 0.00 | 99 | 1021.1 |
| 20260906081404 | 64 | 265 | 0.0 | 0.0 | 0.00 | 0.00 | 0.00 | 99 | 1020.8 |
| 20260906080901 | 64 | 265 | 0.0 | 0.0 | 0.00 | 0.00 | 0.00 | 99 | 1020.8 |
| 20260906080357 | 64 | 265 | 0.0 | 0.0 | 0.00 | 0.00 | 0.00 | 99 | 1021.0 |
| 20260906075856 | 64 | 265 | 0.0 | 0.0 | 0.00 | 0.00 | 0.00 | 99 | 1020.9 |
| 20260906075351 | 64 | 265 | 0.0 | 0.0 | 0.00 | 0.00 | 0.00 | 99 | 1020.6 |
| 20260906074846 | 64 | 265 | 0.0 | 0.0 | 0.00 | 0.00 | 0.00 | 99 | 1020.7 |
| 20260906074345 | 64 | 265 | 0.0 | 0.0 | 0.00 | 0.00 | 0.00 | 99 | 1020.5 |
| 20260906073844 | 64 | 265 | 0.0 | 0.0 | 0.00 | 0.00 | 0.00 | 99 | 1020.5 |
| 20260906073339 | 64 | 265 | 0.0 | 0.0 | 0.00 | 0.00 | 0.00 | 99 | 1020.4 |
| 20260906072836 | 65 | 265 | 0.0 | 0.0 | 0.00 | 0.00 | 0.00 | 99 | 1020.4 |
| 20260906072331 | 65 | 265 | 0.0 | 0.0 | 0.00 | 0.00 | 0.00 | 99 | 1020.3 |
| 20260906071828 | 65 | 265 | 0.0 | 0.0 | 0.00 | 0.00 | 0.00 | 99 | 1020.3 |
| 20260906071327 | 65 | 265 | 0.0 | 0.0 | 0.00 | 0.00 | 0.00 | 99 | 1020.1 |
| 20260906070824 | 65 | 265 | 0.0 | 0.0 | 0.00 | 0.00 | 0.00 | 99 | 1020.4 |
| 20260906070320 | 65 | 265 | 0.0 | 0.0 | 0.00 | 0.00 | 0.00 | 99 | 1020.4 |
| 20260906065820 | 65 | 265 | 0.0 | 0.0 | 0.00 | 0.00 | 0.00 | 99 | 1020.1 |
| 20260906065315 | 65 | 265 | 0.0 | 0.0 | 0.00 | 0.00 | 0.00 | 99 | 1020.4 |
| 20260906064810 | 65 | 265 | 0.0 | 0.0 | 0.00 | 0.00 | 0.00 | 99 | 1020.3 |
| 20260906064306 | 64 | 265 | 0.0 | 0.0 | 0.00 | 0.00 | 0.00 | 99 | 1020.4 |
| 20260906063801 | 65 | 265 | 0.0 | 0.0 | 0.00 | 0.00 | 0.00 | 99 | 1020.3 |
| 20260906063256 | 65 | 265 | 0.0 | 0.0 | 0.00 | 0.00 | 0.00 | 99 | 1020.3 |
| 20260906062751 | 64 | 265 | 0.0 | 0.0 | 0.00 | 0.00 | 0.00 | 99 | 1020.1 |
| 20260906062251 | 65 | 265 | 0.0 | 0.0 | 0.00 | 0.00 | 0.00 | 99 | 1020.1 |
| 20260906061746 | 65 | 265 | 0.0 | 0.0 | 0.00 | 0.00 | 0.00 | 99 | 1020.3 |
| 20260906061243 | 65 | 265 | 0.0 | 0.0 | 0.00 | 0.00 | 0.00 | 99 | 1020.4 |
| 20260906060732 | 65 | 265 | 0.0 | 0.0 | 0.00 | 0.00 | 0.00 | 99 | 1020.3 |
| 20260906060230 | 65 | 265 | 0.0 | 0.0 | 0.00 | 0.00 | 0.00 | 99 | 1020.0 |
| 20260906055725 | 65 | 265 | 0.0 | 0.0 | 0.00 | 0.00 | 0.00 | 99 | 1020.3 |
| 20260906055220 | 65 | 265 | 0.0 | 0.0 | 0.00 | 0.00 | 0.00 | 99 | 1020.1 |
| 20260906054716 | 65 | 265 | 0.0 | 0.0 | 0.00 | 0.00 | 0.00 | 99 | 1020.3 |
| 20260906054216 | 65 | 265 | 0.0 | 0.0 | 0.00 | 0.00 | 0.00 | 99 | 1020.0 |
| 20260906053712 | 65 | 265 | 0.0 | 0.0 | 0.00 | 0.00 | 0.00 | 99 | 1019.9 |
| 20260906053207 | 65 | 265 | 0.0 | 0.0 | 0.00 | 0.00 | 0.00 | 99 | 1020.0 |
| 20260906052702 | 65 | 265 | 0.0 | 0.0 | 0.00 | 0.00 | 0.00 | 99 | 1019.8 |
| 20260906052159 | 65 | 265 | 0.0 | 0.0 | 0.00 | 0.00 | 0.00 | 99 | 1019.8 |
| 20260906051655 | 65 | 265 | 0.0 | 0.0 | 0.00 | 0.00 | 0.00 | 99 | 1019.9 |
| 20260906051154 | 65 | 265 | 0.0 | 0.0 | 0.00 | 0.00 | 0.00 | 99 | 1020.0 |
| 20260906050650 | 65 | 265 | 0.0 | 0.0 | 0.00 | 0.00 | 0.00 | 98 | 1019.7 |
| 20260906050145 | 65 | 265 | 0.0 | 0.0 | 0.00 | 0.00 | 0.00 | 98 | 1019.9 |
| 20260906045644 | 65 | 265 | 0.0 | 0.0 | 0.00 | 0.00 | 0.00 | 98 | 1020.0 |
| 20260906045139 | 65 | 265 | 0.0 | 0.0 | 0.00 | 0.00 | 0.00 | 98 | 1020.0 |
| 20260906044635 | 65 | 265 | 0.0 | 0.9 | 0.00 | 0.00 | 0.00 | 98 | 1020.1 |
| 20260906044130 | 65 | 264 | 0.0 | 0.0 | 0.00 | 0.00 | 0.00 | 98 | 1019.9 |
| 20260906043626 | 65 | 264 | 0.0 | 0.0 | 0.00 | 0.00 | 0.00 | 98 | 1020.0 |
| 20260906043121 | 66 | 264 | 0.0 | 0.0 | 0.00 | 0.00 | 0.00 | 98 | 1019.9 |
| 20260906042621 | 65 | 264 | 0.0 | 0.0 | 0.00 | 0.00 | 0.00 | 98 | 1019.7 |
| 20260906042115 | 65 | 264 | 0.0 | 0.0 | 0.00 | 0.00 | 0.00 | 98 | 1019.9 |
| 20260906041612 | 65 | 264 | 0.0 | 0.0 | 0.00 | 0.00 | 0.00 | 98 | 1019.7 |
| 20260906041106 | 66 | 264 | 0.0 | 0.0 | 0.00 | 0.00 | 0.00 | 98 | 1019.8 |
| 20260906040601 | 66 | 268 | 0.0 | 0.0 | 0.00 | 0.00 | 0.00 | 98 | 1019.6 |
| 20260906040057 | 66 | 270 | 0.9 | 1.7 | 0.00 | 0.00 | 0.00 | 98 | 1019.6 |
| 20260906035552 | 66 | 263 | 0.0 | 0.0 | 0.00 | 0.00 | 0.00 | 98 | 1019.7 |
| 20260906035048 | 66 | 263 | 0.0 | 0.0 | 0.00 | 0.00 | 0.00 | 98 | 1019.7 |
| 20260906034548 | 66 | 263 | 0.0 | 0.0 | 0.00 | 0.00 | 0.00 | 97 | 1019.6 |
| 20260906034043 | 66 | 263 | 0.0 | 0.0 | 0.00 | 0.00 | 0.00 | 97 | 1019.6 |
| 20260906033538 | 66 | 263 | 0.0 | 0.0 | 0.00 | 0.00 | 0.00 | 97 | 1019.5 |
| 20260906033033 | 66 | 263 | 0.0 | 0.0 | 0.00 | 0.00 | 0.00 | 97 | 1019.7 |
| 20260906032530 | 66 | 264 | 0.0 | 1.7 | 0.00 | 0.00 | 0.00 | 97 | 1019.6 |
| 20260906032030 | 66 | 357 | 0.0 | 0.0 | 0.00 | 0.00 | 0.00 | 97 | 1019.7 |
| 20260906031526 | 66 | 357 | 0.0 | 0.0 | 0.00 | 0.00 | 0.00 | 96 | 1019.6 |
| 20260906031021 | 66 | 358 | 0.0 | 0.0 | 0.00 | 0.00 | 0.00 | 96 | 1019.5 |
| 20260906030520 | 66 | 261 | 0.0 | 0.0 | 0.00 | 0.00 | 0.00 | 96 | 1019.6 |
| 20260906030020 | 66 | 261 | 0.0 | 0.0 | 0.00 | 0.00 | 0.00 | 96 | 1019.6 |
| 20260906025520 | 66 | 261 | 0.0 | 0.0 | 0.00 | 0.00 | 0.00 | 96 | 1019.6 |
| 20260906025018 | 66 | 261 | 0.0 | 0.0 | 0.00 | 0.00 | 0.00 | 95 | 1019.6 |
| 20260906024514 | 66 | 260 | 0.0 | 0.0 | 0.00 | 0.00 | 0.00 | 95 | 1019.7 |
| 20260906024014 | 66 | 260 | 0.0 | 0.0 | 0.00 | 0.00 | 0.00 | 95 | 1019.6 |
| 20260906023510 | 66 | 261 | 0.0 | 0.0 | 0.00 | 0.00 | 0.00 | 95 | 1019.7 |
| 20260906023005 | 66 | 257 | 0.0 | 0.0 | 0.00 | 0.00 | 0.00 | 95 | 1019.7 |
| 20260906022500 | 66 | 257 | 0.0 | 0.0 | 0.00 | 0.00 | 0.00 | 95 | 1019.7 |
| 20260906021955 | 67 | 257 | 0.0 | 0.0 | 0.00 | 0.00 | 0.00 | 95 | 1019.5 |
| 20260906021450 | 67 | 257 | 0.0 | 0.0 | 0.00 | 0.00 | 0.00 | 95 | 1019.7 |
| 20260906020950 | 67 | 256 | 0.0 | 0.0 | 0.00 | 0.00 | 0.00 | 95 | 1019.7 |
| 20260906020444 | 67 | 257 | 0.0 | 0.0 | 0.00 | 0.00 | 0.00 | 95 | 1019.6 |
| 20260906015938 | 67 | 256 | 0.0 | 0.0 | 0.00 | 0.00 | 0.00 | 94 | 1019.7 |
| 20260906015432 | 67 | 257 | 0.0 | 0.0 | 0.00 | 0.00 | 0.00 | 94 | 1019.7 |
| 20260906014932 | 67 | 257 | 0.0 | 0.0 | 0.00 | 0.00 | 0.00 | 94 | 1019.5 |
| 20260906014432 | 67 | 256 | 0.0 | 0.0 | 0.00 | 0.00 | 0.00 | 94 | 1019.6 |
| 20260906013928 | 67 | 282 | 0.0 | 0.9 | 0.00 | 0.00 | 0.00 | 94 | 1019.4 |
| 20260906013423 | 67 | 287 | 0.0 | 0.0 | 0.00 | 0.00 | 0.00 | 93 | 1019.4 |
| 20260906012919 | 68 | 288 | 0.0 | 0.0 | 0.00 | 0.00 | 0.00 | 93 | 1019.3 |
| 20260906012414 | 68 | 168 | 0.0 | 0.0 | 0.00 | 0.00 | 0.00 | 93 | 1019.3 |
| 20260906011913 | 68 | 124 | 0.0 | 0.9 | 0.00 | 0.00 | 0.00 | 93 | 1019.3 |
| 20260906011408 | 68 | 195 | 0.0 | 0.0 | 0.00 | 0.00 | 0.00 | 92 | 1019.4 |
| 20260906010904 | 68 | 126 | 0.0 | 0.0 | 0.00 | 0.00 | 0.00 | 92 | 1019.3 |
| 20260906010359 | 68 | 139 | 0.0 | 1.7 | 0.00 | 0.00 | 0.00 | 92 | 1019.2 |
| 20260906005855 | 68 | 56 | 0.0 | 0.9 | 0.00 | 0.00 | 0.00 | 92 | 1019.2 |
| 20260906005354 | 68 | 60 | 0.0 | 0.0 | 0.00 | 0.00 | 0.00 | 92 | 1019.1 |
| 20260906004853 | 68 | 56 | 0.0 | 0.0 | 0.00 | 0.00 | 0.00 | 92 | 1019.2 |
| 20260906004353 | 68 | 52 | 0.0 | 0.9 | 0.00 | 0.00 | 0.00 | 93 | 1019.1 |
| 20260906003848 | 68 | 185 | 0.0 | 0.9 | 0.00 | 0.00 | 0.00 | 94 | 1019.0 |
| 20260906003343 | 68 | 63 | 0.0 | 0.9 | 0.00 | 0.00 | 0.00 | 94 | 1019.2 |
| 20260906002839 | 68 | 66 | 0.0 | 1.7 | 0.00 | 0.00 | 0.00 | 94 | 1019.0 |
| 20260906002338 | 68 | 141 | 0.0 | 0.9 | 0.00 | 0.00 | 0.00 | 94 | 1019.2 |
| 20260906001834 | 68 | 2 | 0.0 | 0.0 | 0.00 | 0.00 | 0.00 | 93 | 1019.4 |
| 20260906001329 | 69 | 271 | 0.0 | 0.0 | 0.00 | 0.00 | 0.00 | 93 | 1019.1 |
| 20260906000824 | 69 | 91 | 0.0 | 0.9 | 0.00 | 0.00 | 0.00 | 92 | 1019.1 |
| 20260906000319 | 69 | 94 | 0.0 | 0.9 | 0.00 | 0.00 | 0.00 | 91 | 1019.2 |
| 20260905235820 | 69 | 46 | 0.0 | 0.9 | 0.00 | 0.00 | 0.00 | 91 | 1019.3 |
| 20260905235319 | 69 | 48 | 0.0 | 0.9 | 0.00 | 0.00 | 0.00 | 90 | 1019.3 |
| 20260905234815 | 69 | 44 | 0.0 | 0.9 | 0.00 | 0.00 | 0.00 | 89 | 1019.3 |
| 20260905234310 | 70 | 57 | 0.0 | 0.9 | 0.00 | 0.00 | 0.00 | 88 | 1019.4 |
| 20260905233806 | 70 | 62 | 0.0 | 0.0 | 0.00 | 0.00 | 0.00 | 87 | 1019.4 |
| 20260905233305 | 71 | 69 | 0.0 | 0.9 | 0.00 | 0.00 | 0.00 | 85 | 1019.2 |
| 20260905232804 | 71 | 70 | 0.0 | 1.7 | 0.00 | 0.00 | 0.00 | 83 | 1019.2 |
| 20260905232305 | 71 | 53 | 0.0 | 0.0 | 0.00 | 0.00 | 0.00 | 82 | 1019.2 |
| 20260905231757 | 72 | 46 | 0.0 | 0.9 | 0.00 | 0.00 | 0.00 | 81 | 1019.4 |
| 20260905231252 | 72 | 42 | 0.0 | 0.9 | 0.00 | 0.00 | 0.00 | 80 | 1019.2 |
| 20260905230748 | 72 | 53 | 0.9 | 0.9 | 0.00 | 0.00 | 0.00 | 79 | 1019.3 |
| 20260905230245 | 73 | 133 | 0.9 | 1.7 | 0.00 | 0.00 | 0.00 | 79 | 1019.1 |
| 20260905225739 | 73 | 238 | 0.0 | 1.7 | 0.00 | 0.00 | 0.00 | 80 | 1019.1 |
| 20260905225235 | 73 | 49 | 0.0 | 0.9 | 0.00 | 0.00 | 0.00 | 80 | 1019.2 |
| 20260905224734 | 73 | 115 | 0.9 | 0.9 | 0.00 | 0.00 | 0.00 | 80 | 1019.2 |
| 20260905224230 | 72 | 108 | 1.7 | 1.7 | 0.00 | 0.00 | 0.00 | 82 | 1019.3 |
| 20260905223726 | 72 | 67 | 0.0 | 0.0 | 0.00 | 0.00 | 0.00 | 83 | 1019.0 |
| 20260905223222 | 72 | 176 | 0.0 | 0.9 | 0.00 | 0.00 | 0.00 | 84 | 1019.1 |
| 20260905222718 | 71 | 156 | 0.9 | 1.7 | 0.00 | 0.00 | 0.00 | 85 | 1019.1 |
| 20260905222217 | 71 | 155 | 0.0 | 0.9 | 0.00 | 0.00 | 0.00 | 85 | 1019.2 |
| 20260905221713 | 71 | 42 | 0.0 | 0.9 | 0.00 | 0.00 | 0.00 | 84 | 1019.0 |
| 20260905221209 | 72 | 180 | 0.9 | 0.9 | 0.00 | 0.00 | 0.00 | 82 | 1019.1 |
| 20260905220705 | 72 | 56 | 0.9 | 0.9 | 0.00 | 0.00 | 0.00 | 83 | 1018.9 |
| 20260905220201 | 72 | 51 | 0.9 | 0.9 | 0.00 | 0.00 | 0.00 | 83 | 1019.1 |
| 20260905215700 | 72 | 54 | 0.0 | 0.9 | 0.00 | 0.00 | 0.00 | 83 | 1019.1 |
| 20260905215156 | 72 | 48 | 0.9 | 1.7 | 0.00 | 0.00 | 0.00 | 82 | 1019.1 |
| 20260905214651 | 72 | 64 | 0.0 | 0.9 | 0.00 | 0.00 | 0.00 | 84 | 1019.4 |
| 20260905214147 | 72 | 236 | 0.0 | 0.0 | 0.00 | 0.00 | 0.00 | 84 | 1019.3 |
| 20260905213643 | 72 | 167 | 0.0 | 0.9 | 0.00 | 0.00 | 0.00 | 84 | 1019.3 |
| 20260905213138 | 72 | 138 | 0.0 | 2.6 | 0.00 | 0.00 | 0.00 | 85 | 1019.0 |
| 20260905212633 | 72 | 133 | 0.0 | 1.7 | 0.00 | 0.00 | 0.00 | 85 | 1019.0 |
| 20260905212133 | 72 | 115 | 0.0 | 0.9 | 0.00 | 0.00 | 0.00 | 87 | 1019.2 |
| 20260905211627 | 71 | 54 | 0.0 | 0.9 | 0.00 | 0.00 | 0.00 | 87 | 1019.1 |
| 20260905211123 | 71 | 113 | 0.0 | 1.7 | 0.00 | 0.00 | 0.00 | 87 | 1019.1 |
| 20260905210620 | 71 | 61 | 0.9 | 1.7 | 0.00 | 0.00 | 0.00 | 87 | 1019.1 |
| 20260905210114 | 71 | 50 | 0.9 | 0.9 | 0.00 | 0.00 | 0.00 | 87 | 1019.0 |
| 20260905205612 | 72 | 340 | 0.9 | 1.7 | 0.00 | 0.00 | 0.00 | 87 | 1019.2 |
| 20260905205112 | 72 | 149 | 0.0 | 0.9 | 0.00 | 0.00 | 0.00 | 86 | 1019.0 |
| 20260905204607 | 72 | 128 | 0.0 | 0.9 | 0.00 | 0.00 | 0.00 | 86 | 1018.9 |
| 20260905204102 | 72 | 41 | 0.0 | 0.9 | 0.00 | 0.00 | 0.00 | 87 | 1018.9 |
| 20260905203601 | 72 | 57 | 0.0 | 1.7 | 0.00 | 0.00 | 0.00 | 87 | 1019.0 |
| 20260905203057 | 72 | 122 | 0.0 | 0.9 | 0.00 | 0.00 | 0.00 | 88 | 1018.9 |
| 20260905202552 | 72 | 60 | 0.9 | 1.7 | 0.00 | 0.00 | 0.00 | 88 | 1019.0 |
| 20260905202048 | 71 | 66 | 0.0 | 0.9 | 0.00 | 0.00 | 0.00 | 89 | 1019.2 |
| 20260905201543 | 71 | 126 | 0.0 | 0.9 | 0.00 | 0.00 | 0.00 | 90 | 1019.0 |
| 20260905201043 | 71 | 85 | 0.0 | 0.9 | 0.00 | 0.00 | 0.00 | 91 | 1019.1 |
| 20260905200538 | 71 | 85 | 0.0 | 0.0 | 0.00 | 0.00 | 0.00 | 92 | 1019.0 |
| 20260905200038 | 71 | 141 | 0.0 | 1.7 | 0.00 | 0.00 | 0.00 | 92 | 1019.1 |
| 20260905195532 | 71 | 155 | 0.0 | 1.7 | 0.00 | 0.00 | 0.00 | 92 | 1019.2 |
| 20260905195028 | 71 | 51 | 0.0 | 0.9 | 0.00 | 0.00 | 0.00 | 92 | 1019.3 |
| 20260905194527 | 71 | 37 | 0.9 | 2.6 | 0.00 | 0.00 | 0.00 | 92 | 1019.0 |
| 20260905194021 | 71 | 275 | 0.9 | 1.7 | 0.00 | 0.00 | 0.00 | 92 | 1019.1 |
| 20260905193516 | 71 | 73 | 0.9 | 0.9 | 0.00 | 0.00 | 0.00 | 91 | 1019.2 |
| 20260905193011 | 72 | 149 | 0.9 | 1.7 | 0.00 | 0.00 | 0.00 | 91 | 1019.1 |
| 20260905192506 | 72 | 120 | 0.9 | 1.7 | 0.00 | 0.00 | 0.00 | 91 | 1019.3 |
| 20260905192002 | 72 | 111 | 0.0 | 0.9 | 0.00 | 0.00 | 0.00 | 91 | 1019.0 |
| 20260905191501 | 72 | 122 | 0.0 | 0.9 | 0.00 | 0.00 | 0.00 | 92 | 1019.1 |
| 20260905191000 | 71 | 71 | 0.0 | 0.9 | 0.00 | 0.00 | 0.00 | 92 | 1019.2 |
| 20260905190458 | 71 | 80 | 0.0 | 0.0 | 0.00 | 0.00 | 0.00 | 93 | 1019.1 |
| 20260905185957 | 71 | 92 | 0.0 | 0.9 | 0.00 | 0.00 | 0.00 | 93 | 1019.3 |
| 20260905185452 | 71 | 116 | 0.9 | 0.9 | 0.00 | 0.00 | 0.00 | 93 | 1019.2 |
| 20260905184951 | 71 | 89 | 0.0 | 0.9 | 0.00 | 0.00 | 0.00 | 94 | 1019.2 |
| 20260905184446 | 71 | 116 | 0.0 | 0.9 | 0.00 | 0.00 | 0.00 | 93 | 1019.4 |
| 20260905183945 | 71 | 96 | 0.0 | 0.0 | 0.00 | 0.00 | 0.00 | 93 | 1019.4 |
| 20260905183439 | 72 | 80 | 0.9 | 0.9 | 0.00 | 0.00 | 0.00 | 92 | 1019.5 |
| 20260905182935 | 72 | 76 | 0.0 | 0.9 | 0.00 | 0.00 | 0.00 | 92 | 1019.3 |
| 20260905182434 | 72 | 68 | 0.0 | 0.9 | 0.00 | 0.00 | 0.00 | 92 | 1019.3 |
| 20260905181929 | 72 | 68 | 0.0 | 0.9 | 0.00 | 0.00 | 0.00 | 92 | 1019.2 |
| 20260905181430 | 72 | 89 | 0.9 | 1.7 | 0.00 | 0.00 | 0.00 | 92 | 1019.2 |
| 20260905180929 | 71 | 89 | 0.0 | 0.0 | 0.00 | 0.00 | 0.00 | 93 | 1019.4 |
| 20260905180424 | 72 | 64 | 0.0 | 0.9 | 0.00 | 0.00 | 0.00 | 92 | 1019.5 |
| 20260905175918 | 72 | 57 | 0.0 | 0.9 | 0.00 | 0.00 | 0.00 | 92 | 1019.2 |
| 20260905175417 | 72 | 58 | 0.0 | 0.0 | 0.00 | 0.00 | 0.00 | 93 | 1019.2 |
| 20260905174913 | 71 | 117 | 0.0 | 0.9 | 0.00 | 0.00 | 0.00 | 93 | 1019.4 |
| 20260905174409 | 71 | 120 | 0.0 | 0.0 | 0.00 | 0.00 | 0.00 | 94 | 1019.2 |
| 20260905173904 | 71 | 118 | 0.0 | 0.9 | 0.00 | 0.00 | 0.00 | 95 | 1019.2 |
| 20260905173400 | 71 | 54 | 0.0 | 0.9 | 0.00 | 0.00 | 0.00 | 95 | 1019.1 |
| 20260905172855 | 71 | 58 | 0.0 | 0.9 | 0.00 | 0.00 | 0.00 | 95 | 1019.2 |
| 20260905172353 | 71 | 57 | 0.0 | 0.9 | 0.00 | 0.00 | 0.00 | 95 | 1019.3 |
| 20260905171849 | 71 | 165 | 0.0 | 0.9 | 0.00 | 0.00 | 0.00 | 95 | 1019.3 |
| 20260905171341 | 71 | 132 | 0.0 | 0.9 | 0.00 | 0.00 | 0.00 | 95 | 1019.3 |
| 20260905170837 | 71 | 95 | 0.0 | 0.0 | 0.00 | 0.00 | 0.00 | 95 | 1019.4 |
| 20260905170333 | 71 | 104 | 0.0 | 0.0 | 0.00 | 0.00 | 0.00 | 95 | 1019.4 |
| 20260905165831 | 71 | 87 | 0.0 | 0.0 | 0.00 | 0.00 | 0.00 | 95 | 1019.3 |
| 20260905165326 | 71 | 105 | 0.0 | 0.0 | 0.00 | 0.00 | 0.00 | 95 | 1019.2 |
| 20260905164821 | 71 | 105 | 0.0 | 0.0 | 0.00 | 0.00 | 0.00 | 95 | 1019.5 |
| 20260905164316 | 71 | 106 | 0.0 | 0.0 | 0.00 | 0.00 | 0.00 | 95 | 1019.2 |
| 20260905163811 | 71 | 90 | 0.0 | 0.0 | 0.00 | 0.00 | 0.00 | 96 | 1019.1 |